Time;durP1;ratioP1;P1;durP2;ratioP2;P2;SDS_P1;SDS_P2;PMS_P1;PMS_P2;Temp;Humidity;BMP_temperature;BMP_pressure;BME280_temperature;BME280_humidity;BME280_pressure;Samples;Min_cycle;Max_cycle;Signal;HPM_P1;HPM_P2
2023/08/27 00:00:17;;;;;;;;;27.00;24.50;;;;;24.37;61.17;100402.09;110220;1250;19632;-37
2023/08/27 00:03:05;;;;;;;;;23.50;22.00;;;;;24.42;61.09;100402.89;110200;1263;22738;-38
2023/08/27 00:05:32;;;;;;;;;23.00;23.00;;;;;24.43;60.97;100403.36;110148;1263;20020;-37
2023/08/27 00:07:59;;;;;;;;;25.67;23.67;;;;;24.43;60.75;100399.23;110200;1250;19656;-37
2023/08/27 00:10:27;;;;;;;;;26.00;23.50;;;;;24.40;60.76;100399.97;110255;1250;19890;-38
2023/08/27 00:12:54;;;;;;;;;22.00;19.50;;;;;24.34;60.89;100400.25;110232;1263;18589;-38
2023/08/27 00:15:21;;;;;;;;;25.67;22.00;;;;;24.29;60.99;100396.29;110197;1263;20569;-38
2023/08/27 00:17:48;;;;;;;;;26.67;23.33;;;;;24.27;61.12;100395.92;110248;1263;18722;-37
2023/08/27 00:20:16;;;;;;;;;33.50;29.00;;;;;24.34;61.05;100401.02;110231;1250;20530;-36
2023/08/27 00:22:43;;;;;;;;;29.50;27.00;;;;;24.30;61.11;100403.66;110183;1263;18326;-37
2023/08/27 00:25:11;;;;;;;;;25.33;23.00;;;;;24.23;61.38;100407.17;110173;1250;20036;-37
2023/08/27 00:27:38;;;;;;;;;31.00;25.50;;;;;24.18;61.42;100408.71;110234;1256;18918;-37
2023/08/27 00:30:06;;;;;;;;;31.50;28.50;;;;;24.27;61.01;100410.84;110265;1250;19568;-37
2023/08/27 00:32:33;;;;;;;;;26.00;23.00;;;;;24.29;61.21;100412.45;110200;1263;18588;-38
2023/08/27 00:35:00;;;;;;;;;30.00;26.00;;;;;24.32;60.98;100406.24;110200;1263;18542;-38
2023/08/27 00:37:28;;;;;;;;;27.00;26.50;;;;;24.33;61.11;100397.52;110213;1263;18339;-37
2023/08/27 00:39:55;;;;;;;;;27.50;23.50;;;;;24.38;60.85;100394.25;110231;1248;21922;-38
2023/08/27 00:42:22;;;;;;;;;24.00;22.00;;;;;24.34;61.25;100386.39;110205;1258;19960;-38
2023/08/27 00:44:50;;;;;;;;;22.33;20.67;;;;;24.34;60.91;100392.58;110182;1250;21811;-38
2023/08/27 00:47:17;;;;;;;;;26.00;23.00;;;;;24.34;61.02;100398.16;110219;1263;18579;-38
2023/08/27 00:49:44;;;;;;;;;24.67;23.67;;;;;24.31;61.02;100394.22;110206;1251;21545;-38
2023/08/27 00:52:12;;;;;;;;;26.00;26.00;;;;;24.28;61.18;100393.30;110283;1263;18139;-37
2023/08/27 00:54:40;;;;;;;;;28.33;25.67;;;;;24.25;61.13;100387.15;110234;1250;20005;-38
2023/08/27 00:57:07;;;;;;;;;26.00;24.00;;;;;24.17;61.43;100385.48;110270;1250;20024;-37
2023/08/27 00:59:35;;;;;;;;;24.00;22.00;;;;;24.24;61.10;100383.05;110243;1249;18189;-37
2023/08/27 01:02:04;;;;;;;;;20.00;20.00;;;;;24.24;61.10;100381.58;110193;1247;18596;-38
2023/08/27 01:04:32;;;;;;;;;26.00;22.00;;;;;24.21;61.07;100380.92;110206;1250;20765;-38
2023/08/27 01:06:59;;;;;;;;;27.00;25.00;;;;;24.23;61.19;100383.17;110249;1249;18173;-38
2023/08/27 01:09:26;;;;;;;;;30.00;24.50;;;;;24.23;61.12;100387.45;110205;1263;21646;-36
2023/08/27 01:11:54;;;;;;;;;24.00;22.50;;;;;24.20;61.30;100387.61;110199;1263;18596;-36
2023/08/27 01:14:21;;;;;;;;;22.00;22.00;;;;;24.19;61.36;100391.77;110266;1264;21961;-37
2023/08/27 01:16:48;;;;;;;;;25.00;22.00;;;;;24.17;61.54;100384.93;110013;1250;366249;-37
2023/08/27 01:19:16;;;;;;;;;31.00;26.00;;;;;24.18;61.71;100389.23;110288;1250;20063;-36
2023/08/27 01:21:43;;;;;;;;;21.00;19.50;;;;;24.21;61.37;100390.77;110282;1257;19478;-36
2023/08/27 01:24:10;;;;;;;;;26.00;23.00;;;;;24.21;61.39;100394.61;110247;1264;18426;-37
2023/08/27 01:26:38;;;;;;;;;22.67;22.33;;;;;24.19;61.45;100402.47;110203;1263;19205;-37
2023/08/27 01:29:06;;;;;;;;;25.00;23.00;;;;;24.19;61.47;100404.98;110226;1250;19599;-37
2023/08/27 01:31:33;;;;;;;;;24.00;23.00;;;;;24.17;61.61;100406.92;110202;1257;19974;-36
2023/08/27 01:34:02;;;;;;;;;24.00;23.00;;;;;24.15;61.64;100409.21;110191;1250;22757;-38
2023/08/27 01:36:33;;;;;;;;;23.00;22.50;;;;;24.15;61.89;100403.58;110199;1263;18240;-37
2023/08/27 01:39:03;;;;;;;;;28.00;25.00;;;;;24.13;61.95;100394.95;110220;1250;20010;-38
2023/08/27 01:41:31;;;;;;;;;29.00;25.00;;;;;24.11;61.82;100395.27;110216;1249;19999;-37
2023/08/27 01:43:58;;;;;;;;;26.33;24.67;;;;;24.14;62.02;100397.63;110206;1257;20774;-36
2023/08/27 01:46:25;;;;;;;;;23.00;22.00;;;;;24.11;62.17;100407.75;110187;1250;19985;-39
2023/08/27 01:48:53;;;;;;;;;24.33;22.00;;;;;24.05;62.45;100425.91;110188;1264;21766;-38
2023/08/27 01:51:20;;;;;;;;;21.33;21.00;;;;;24.02;62.34;100436.91;110207;1264;18160;-38
2023/08/27 01:53:47;;;;;;;;;26.00;24.00;;;;;24.06;62.34;100435.96;110217;1260;20037;-38
2023/08/27 01:56:14;;;;;;;;;23.00;23.00;;;;;24.04;62.41;100439.34;110212;1263;18646;-37
2023/08/27 01:58:42;;;;;;;;;27.00;25.00;;;;;24.03;62.63;100437.88;110215;1263;18158;-38
2023/08/27 02:01:10;;;;;;;;;32.00;30.00;;;;;24.08;62.44;100436.70;110216;1257;19900;-38
2023/08/27 02:03:38;;;;;;;;;33.50;28.00;;;;;24.06;62.36;100427.10;110233;1251;20031;-38
2023/08/27 02:06:05;;;;;;;;;29.50;26.50;;;;;24.04;62.59;100427.36;110237;1263;18135;-38
2023/08/27 02:08:32;;;;;;;;;35.67;29.67;;;;;24.02;62.34;100431.23;110231;1257;19895;-37
2023/08/27 02:11:00;;;;;;;;;31.50;30.00;;;;;24.00;62.44;100427.15;110222;1264;22121;-39
2023/08/27 02:13:27;;;;;;;;;35.00;27.50;;;;;24.03;62.29;100426.84;110242;1263;18186;-38
2023/08/27 02:15:54;;;;;;;;;39.50;36.50;;;;;24.00;62.36;100412.50;110171;1263;21968;-39
2023/08/27 02:18:22;;;;;;;;;36.00;33.00;;;;;23.93;62.65;100402.59;110320;1250;20090;-38
2023/08/27 02:20:49;;;;;;;;;30.00;28.00;;;;;23.93;62.64;100395.70;110237;1251;19583;-38
2023/08/27 02:23:16;;;;;;;;;29.00;25.00;;;;;23.93;62.57;100392.80;110201;1263;19318;-38
2023/08/27 02:25:43;;;;;;;;;29.67;26.33;;;;;23.90;62.63;100394.16;110229;1257;19875;-39
2023/08/27 02:28:11;;;;;;;;;28.00;25.50;;;;;23.89;62.67;100393.08;110193;1250;19551;-37
2023/08/27 02:30:38;;;;;;;;;29.00;26.00;;;;;23.91;62.67;100388.73;110287;1247;19206;-37
2023/08/27 02:33:05;;;;;;;;;33.00;30.00;;;;;23.93;62.85;100390.61;110314;1250;20084;-36
2023/08/27 02:35:33;;;;;;;;;28.00;25.00;;;;;23.93;62.86;100380.05;110335;1250;19549;-37
2023/08/27 02:38:00;;;;;;;;;25.50;23.50;;;;;23.91;62.80;100378.55;110326;1263;18467;-36
2023/08/27 02:40:27;;;;;;;;;31.00;29.33;;;;;23.87;62.66;100376.77;110270;1250;20087;-37
2023/08/27 02:42:55;;;;;;;;;28.50;27.00;;;;;23.86;62.59;100376.29;110221;1249;19589;-35
2023/08/27 02:45:22;;;;;;;;;;;;;;;23.83;63.05;100374.48;110234;1250;22029;-38
2023/08/27 02:47:49;;;;;;;;;28.33;26.00;;;;;23.84;62.80;100379.55;110218;1250;19619;-38
2023/08/27 02:50:17;;;;;;;;;26.00;25.00;;;;;23.82;62.78;100381.50;110197;1250;19580;-39
2023/08/27 02:52:44;;;;;;;;;27.00;27.00;;;;;23.80;62.71;100386.57;110222;1250;19976;-38
2023/08/27 02:55:11;;;;;;;;;29.50;25.50;;;;;23.77;62.57;100390.11;110225;1263;18626;-36
2023/08/27 02:57:38;;;;;;;;;28.00;26.50;;;;;23.76;62.57;100387.23;110211;1250;22727;-36
2023/08/27 03:00:06;;;;;;;;;29.00;25.00;;;;;23.72;62.47;100383.31;110190;1263;18917;-38
2023/08/27 03:02:33;;;;;;;;;27.50;25.50;;;;;23.70;62.38;100373.34;110190;1250;20061;-37
2023/08/27 03:05:00;;;;;;;;;28.00;26.50;;;;;23.69;62.33;100367.17;110172;1263;18952;-37
2023/08/27 03:07:28;;;;;;;;;27.50;26.00;;;;;23.68;62.11;100362.86;110238;1250;19971;-37
2023/08/27 03:09:55;;;;;;;;;25.00;23.50;;;;;23.66;62.12;100357.05;110222;1263;19396;-37
2023/08/27 03:12:22;;;;;;;;;28.50;26.00;;;;;23.65;62.44;100351.48;110210;1250;19570;-37
2023/08/27 03:14:49;;;;;;;;;26.00;25.00;;;;;23.66;62.10;100350.65;110217;1249;22008;-38
2023/08/27 03:17:17;;;;;;;;;29.00;25.50;;;;;23.66;62.21;100358.52;110219;1247;18583;-37
2023/08/27 03:19:44;;;;;;;;;25.00;24.00;;;;;23.66;62.20;100376.48;110209;1263;20448;-38
2023/08/27 03:22:11;;;;;;;;;32.00;29.00;;;;;23.64;62.25;100386.89;110224;1249;21277;-39
2023/08/27 03:24:39;;;;;;;;;36.00;31.00;;;;;23.63;61.99;100390.45;110196;1247;19906;-38
2023/08/27 03:27:06;;;;;;;;;32.50;30.00;;;;;23.62;62.26;100392.39;110222;1250;19576;-37
2023/08/27 03:29:33;;;;;;;;;25.00;23.00;;;;;23.62;61.90;100392.60;110201;1250;20480;-37
2023/08/27 03:32:01;;;;;;;;;27.00;25.67;;;;;23.57;62.38;100391.15;110233;1250;20041;-38
2023/08/27 03:34:28;;;;;;;;;28.33;28.00;;;;;23.55;62.15;100396.64;110186;1258;18124;-37
2023/08/27 03:36:55;;;;;;;;;32.00;28.00;;;;;23.53;62.37;100399.77;110223;1264;20166;-37
2023/08/27 03:39:22;;;;;;;;;27.00;25.00;;;;;23.54;62.10;100406.15;110241;1250;21912;-38
2023/08/27 03:41:50;;;;;;;;;25.00;24.00;;;;;23.58;62.05;100406.55;110210;1250;19530;-38
2023/08/27 03:44:17;;;;;;;;;29.00;28.00;;;;;23.53;62.29;100406.55;110205;1250;21900;-36
2023/08/27 03:46:44;;;;;;;;;27.00;24.00;;;;;23.54;62.26;100411.91;110225;1263;18605;-38
2023/08/27 03:49:12;;;;;;;;;25.00;24.00;;;;;23.54;62.04;100423.93;110216;1250;19744;-38
2023/08/27 03:51:39;;;;;;;;;30.00;25.00;;;;;23.53;62.16;100430.35;110186;1250;20997;-37
2023/08/27 03:54:06;;;;;;;;;30.00;26.00;;;;;23.54;62.31;100435.48;110208;1263;21946;-37
2023/08/27 03:56:34;;;;;;;;;26.00;24.00;;;;;23.50;62.36;100440.55;110206;1249;19615;-37
2023/08/27 03:59:01;;;;;;;;;24.00;22.00;;;;;23.52;62.26;100446.55;110199;1250;22115;-37
2023/08/27 04:01:28;;;;;;;;;24.00;24.00;;;;;23.50;62.33;100445.59;110201;1264;21919;-36
2023/08/27 04:03:55;;;;;;;;;24.00;24.00;;;;;23.47;62.38;100451.36;110216;1264;18126;-38
2023/08/27 04:06:23;;;;;;;;;27.50;25.50;;;;;23.48;62.42;100454.58;110225;1264;21518;-38
2023/08/27 04:08:50;;;;;;;;;25.00;25.00;;;;;23.51;62.11;100459.29;110213;1247;18629;-37
2023/08/27 04:11:17;;;;;;;;;21.00;21.00;;;;;23.46;62.32;100450.06;110237;1263;18139;-38
2023/08/27 04:13:45;;;;;;;;;29.00;25.00;;;;;23.46;62.35;100441.32;110216;1250;19966;-37
2023/08/27 04:16:12;;;;;;;;;24.00;22.50;;;;;23.47;62.28;100432.66;110138;1257;21145;-37
2023/08/27 04:18:39;;;;;;;;;22.00;22.00;;;;;23.45;62.16;100432.70;110287;1250;20440;-37
2023/08/27 04:21:07;;;;;;;;;25.00;25.00;;;;;23.47;62.16;100435.84;110215;1263;18954;-37
2023/08/27 04:23:34;;;;;;;;;25.00;24.00;;;;;23.40;62.46;100444.63;110201;1263;18571;-38
2023/08/27 04:26:03;;;;;;;;;25.67;25.67;;;;;23.44;62.12;100448.02;110211;1250;22046;-37
2023/08/27 04:28:31;;;;;;;;;26.00;22.00;;;;;23.43;62.33;100450.55;110195;1250;19997;-38
2023/08/27 04:30:58;;;;;;;;;29.00;26.50;;;;;23.41;62.06;100440.23;110225;1250;23145;-37
2023/08/27 04:33:26;;;;;;;;;25.00;25.00;;;;;23.41;62.28;100438.55;110218;1248;19482;-38
2023/08/27 04:35:53;;;;;;;;;28.00;25.00;;;;;23.41;62.21;100433.67;110198;1263;18575;-38
2023/08/27 04:38:21;;;;;;;;;25.50;25.00;;;;;23.41;62.49;100434.13;110226;1257;20104;-38
2023/08/27 04:40:48;;;;;;;;;26.00;24.00;;;;;23.39;62.58;100433.22;110188;1248;21878;-38
2023/08/27 04:43:15;;;;;;;;;25.00;24.00;;;;;23.39;62.37;100440.75;110205;1250;19990;-37
2023/08/27 04:45:43;;;;;;;;;35.67;31.67;;;;;23.38;62.26;100440.28;110209;1263;18607;-37
2023/08/27 04:48:10;;;;;;;;;25.33;22.67;;;;;23.42;62.30;100441.98;110218;1250;20664;-37
2023/08/27 04:50:37;;;;;;;;;30.50;27.50;;;;;23.44;62.32;100435.23;110177;1248;21682;-36
2023/08/27 04:53:05;;;;;;;;;25.33;24.67;;;;;23.42;62.19;100425.69;110254;1263;18578;-37
2023/08/27 04:55:33;;;;;;;;;26.00;21.50;;;;;23.40;62.41;100423.91;110307;1263;19520;-38
2023/08/27 04:58:00;;;;;;;;;27.00;25.00;;;;;23.38;62.34;100416.52;110305;1247;20299;-37
2023/08/27 05:00:28;;;;;;;;;29.00;23.00;;;;;23.40;62.38;100417.80;110299;1250;20055;-37
2023/08/27 05:02:55;;;;;;;;;24.00;21.00;;;;;23.45;62.24;100408.80;110269;1263;18179;-38
2023/08/27 05:05:22;;;;;;;;;27.00;27.00;;;;;23.42;62.54;100409.29;110200;1257;21077;-38
2023/08/27 05:07:50;;;;;;;;;29.67;26.33;;;;;23.43;62.67;100405.11;110231;1250;20087;-38
2023/08/27 05:10:17;;;;;;;;;41.00;36.00;;;;;23.41;62.52;100402.63;110205;1263;18158;-38
2023/08/27 05:12:44;;;;;;;;;38.50;36.50;;;;;23.42;62.81;100407.48;110200;1250;20125;-37
2023/08/27 05:15:11;;;;;;;;;31.67;28.67;;;;;23.39;63.04;100405.11;110199;1257;19913;-37
2023/08/27 05:17:39;;;;;;;;;29.00;26.00;;;;;23.42;62.77;100401.19;110206;1263;18106;-37
2023/08/27 05:20:07;;;;;;;;;25.33;22.00;;;;;23.47;62.70;100405.22;110209;1263;19114;-37
2023/08/27 05:22:34;;;;;;;;;32.50;28.50;;;;;23.46;62.96;100401.85;110202;1250;19994;-37
2023/08/27 05:25:01;;;;;;;;;25.00;24.00;;;;;23.40;63.23;100394.67;110232;1263;18221;-38
2023/08/27 05:27:29;;;;;;;;;26.00;25.00;;;;;23.39;63.38;100389.70;110218;1263;18605;-38
2023/08/27 05:29:56;;;;;;;;;27.00;25.00;;;;;23.45;63.25;100387.27;110205;1248;21623;-37
2023/08/27 05:32:24;;;;;;;;;26.33;25.33;;;;;23.46;63.00;100390.31;110223;1250;19602;-37
2023/08/27 05:34:51;;;;;;;;;27.00;24.00;;;;;23.47;63.15;100399.20;110219;1263;18597;-38
2023/08/27 05:37:19;;;;;;;;;24.67;22.33;;;;;23.45;63.03;100404.70;110193;1251;20030;-38
2023/08/27 05:39:46;;;;;;;;;25.50;24.00;;;;;23.48;63.16;100405.36;110174;1247;18161;-37
2023/08/27 05:42:13;;;;;;;;;21.00;21.00;;;;;23.48;63.10;100409.47;110229;1250;20035;-37
2023/08/27 05:44:40;;;;;;;;;25.67;24.00;;;;;23.48;63.11;100408.86;110208;1250;20047;-37
2023/08/27 05:47:08;;;;;;;;;26.00;24.00;;;;;23.49;63.21;100410.59;110210;1263;18138;-37
2023/08/27 05:49:35;;;;;;;;;26.50;25.00;;;;;23.51;63.09;100413.58;110144;1250;21663;-37
2023/08/27 05:52:03;;;;;;;;;29.50;25.50;;;;;23.50;63.17;100414.46;110170;1250;21296;-37
2023/08/27 05:54:30;;;;;;;;;28.00;25.00;;;;;23.50;62.98;100409.97;110295;1250;19563;-36
2023/08/27 05:56:57;;;;;;;;;34.00;29.00;;;;;23.52;63.14;100403.52;110218;1250;21646;-36
2023/08/27 05:59:25;;;;;;;;;28.00;26.00;;;;;23.57;62.99;100398.20;110201;1263;18573;-37
2023/08/27 06:01:52;;;;;;;;;30.00;29.00;;;;;23.50;63.28;100396.52;110182;1256;18208;-37
2023/08/27 06:04:19;;;;;;;;;35.00;29.50;;;;;23.50;63.38;100394.95;110200;1250;23117;-37
2023/08/27 06:06:47;;;;;;;;;32.50;32.00;;;;;23.53;63.11;100390.59;110162;1250;19961;-36
2023/08/27 06:09:14;;;;;;;;;34.00;31.00;;;;;23.56;63.19;100380.66;110211;1247;19557;-36
2023/08/27 06:11:41;;;;;;;;;48.00;40.00;;;;;23.55;63.42;100375.65;110224;1263;18588;-37
2023/08/27 06:14:08;;;;;;;;;40.00;37.50;;;;;23.56;63.44;100378.05;110191;1250;22187;-38
2023/08/27 06:16:36;;;;;;;;;32.50;30.50;;;;;23.58;63.18;100377.73;110205;1264;18116;-36
2023/08/27 06:19:03;;;;;;;;;25.50;25.00;;;;;23.54;63.58;100382.43;110177;1250;19904;-37
2023/08/27 06:21:30;;;;;;;;;33.00;30.00;;;;;23.62;63.30;100378.50;110207;1263;19083;-37
2023/08/27 06:23:58;;;;;;;;;33.00;31.00;;;;;23.65;63.23;100379.45;110207;1264;18125;-38
2023/08/27 06:26:25;;;;;;;;;33.33;29.00;;;;;23.67;63.44;100378.74;110201;1250;20120;-38
2023/08/27 06:28:52;;;;;;;;;29.00;25.00;;;;;23.70;63.43;100379.95;110192;1261;18593;-38
2023/08/27 06:31:19;;;;;;;;;29.00;26.00;;;;;23.72;63.35;100379.48;110186;1247;19485;-37
2023/08/27 06:33:47;;;;;;;;;30.00;26.00;;;;;23.69;63.62;100384.69;110200;1250;21820;-36
2023/08/27 06:36:14;;;;;;;;;35.33;31.33;;;;;23.73;63.34;100385.80;110187;1263;18592;-38
2023/08/27 06:38:41;;;;;;;;;32.00;29.00;;;;;23.72;63.67;100382.65;110207;1263;18962;-39
2023/08/27 06:41:09;;;;;;;;;30.00;29.00;;;;;23.72;63.53;100381.67;110170;1247;20013;-38
2023/08/27 06:43:36;;;;;;;;;29.50;23.50;;;;;23.72;63.76;100375.48;110281;1250;21908;-38
2023/08/27 06:46:03;;;;;;;;;28.33;24.33;;;;;23.76;63.54;100369.94;110123;1250;19984;-38
2023/08/27 06:48:33;;;;;;;;;29.00;27.00;;;;;23.78;63.53;100368.93;110210;1250;21673;-38
2023/08/27 06:51:00;;;;;;;;;31.00;26.00;;;;;23.82;63.29;100365.69;110221;1250;20045;-39
2023/08/27 06:53:28;;;;;;;;;30.00;26.00;;;;;23.85;63.31;100371.71;110210;1250;19747;-38
2023/08/27 06:55:55;;;;;;;;;27.00;25.00;;;;;23.92;63.50;100374.44;110197;1250;19972;-36
2023/08/27 06:58:22;;;;;;;;;29.00;22.00;;;;;23.85;63.85;100384.78;110216;1263;18591;-38
2023/08/27 07:00:49;;;;;;;;;24.50;21.00;;;;;23.92;63.53;100386.73;110170;1263;18154;-36
2023/08/27 07:03:17;;;;;;;;;29.50;26.00;;;;;24.08;62.98;100389.31;110180;1250;20000;-37
2023/08/27 07:05:44;;;;;;;;;33.00;30.00;;;;;24.12;62.78;100388.95;110241;1256;20116;-38
2023/08/27 07:08:12;;;;;;;;;31.50;28.00;;;;;23.93;63.33;100389.58;110243;1248;19540;-37
2023/08/27 07:10:39;;;;;;;;;31.00;27.00;;;;;23.89;63.68;100391.01;110225;1263;18570;-38
2023/08/27 07:13:06;;;;;;;;;29.00;27.50;;;;;23.85;63.97;100389.66;110236;1263;18618;-37
2023/08/27 07:15:34;;;;;;;;;27.00;26.00;;;;;23.98;63.35;100387.63;110234;1257;19480;-38
2023/08/27 07:18:02;;;;;;;;;33.00;29.00;;;;;23.95;63.54;100384.84;110230;1251;21523;-38
2023/08/27 07:20:29;;;;;;;;;25.00;23.00;;;;;23.82;63.82;100380.35;110259;1263;19841;-38
2023/08/27 07:22:57;;;;;;;;;25.00;25.00;;;;;23.81;63.93;100376.21;110309;1251;19583;-38
2023/08/27 07:25:24;;;;;;;;;28.50;25.50;;;;;23.84;63.88;100370.41;110344;1247;19992;-38
2023/08/27 07:27:51;;;;;;;;;28.00;27.00;;;;;23.97;63.30;100366.14;110266;1250;20031;-38
2023/08/27 07:30:19;;;;;;;;;29.50;26.00;;;;;23.97;63.33;100367.45;110238;1248;20701;-38
2023/08/27 07:32:46;;;;;;;;;33.00;27.00;;;;;23.94;63.60;100367.90;110208;1250;22204;-38
2023/08/27 07:35:14;;;;;;;;;34.00;28.00;;;;;23.88;63.86;100370.45;110222;1263;18603;-38
2023/08/27 07:37:41;;;;;;;;;32.00;29.00;;;;;23.83;63.90;100379.62;110217;1250;21971;-39
2023/08/27 07:40:10;;;;;;;;;33.50;27.50;;;;;23.84;63.93;100379.00;110192;1263;18724;-38
2023/08/27 07:42:37;;;;;;;;;38.00;32.00;;;;;23.87;63.74;100377.91;110254;1250;20016;-38
2023/08/27 07:45:05;;;;;;;;;25.00;25.00;;;;;23.76;63.95;100374.98;110284;1249;19565;-38
2023/08/27 07:47:32;;;;;;;;;30.33;27.33;;;;;23.84;64.16;100371.50;110203;1250;19987;-38
2023/08/27 07:50:00;;;;;;;;;30.00;26.00;;;;;23.89;63.89;100369.61;110206;1263;18682;-38
2023/08/27 07:52:27;;;;;;;;;29.00;27.50;;;;;23.98;63.61;100368.48;110275;1250;19602;-38
2023/08/27 07:54:54;;;;;;;;;28.00;27.00;;;;;23.98;63.88;100362.52;110252;1257;22072;-38
2023/08/27 07:57:21;;;;;;;;;26.67;22.67;;;;;24.03;63.38;100358.15;110282;1250;20102;-38
2023/08/27 07:59:51;;;;;;;;;33.33;30.00;;;;;24.12;63.37;100364.12;110253;1249;21861;-38
2023/08/27 08:02:19;;;;;;;;;30.50;28.00;;;;;24.10;62.97;100367.55;110202;1250;19988;-35
2023/08/27 08:04:46;;;;;;;;;31.00;29.00;;;;;24.07;62.67;100366.73;110260;1250;20004;-38
2023/08/27 08:07:14;;;;;;;;;31.00;27.00;;;;;23.97;63.44;100365.66;110255;1250;19534;-37
2023/08/27 08:09:41;;;;;;;;;29.50;27.50;;;;;24.04;63.26;100365.75;110167;1250;21032;-38
2023/08/27 08:12:08;;;;;;;;;37.50;33.00;;;;;24.10;63.10;100355.40;110205;1247;21932;-37
2023/08/27 08:14:36;;;;;;;;;26.00;23.00;;;;;24.09;63.06;100353.55;110231;1249;19709;-36
2023/08/27 08:17:03;;;;;;;;;38.50;31.00;;;;;24.16;62.55;100353.46;110148;1250;19986;-36
2023/08/27 08:19:31;;;;;;;;;36.50;31.00;;;;;24.18;62.35;100357.86;110244;1263;18567;-38
2023/08/27 08:21:58;;;;;;;;;50.00;42.00;;;;;24.23;62.40;100358.83;110188;1264;19542;-37
2023/08/27 08:24:25;;;;;;;;;41.50;37.50;;;;;24.18;62.62;100359.35;110179;1257;18569;-37
2023/08/27 08:26:53;;;;;;;;;38.00;32.33;;;;;24.14;62.58;100360.64;110214;1250;21103;-37
2023/08/27 08:29:22;;;;;;;;;27.00;27.00;;;;;24.20;62.36;100356.52;110193;1249;19622;-36
2023/08/27 08:31:49;;;;;;;;;27.00;26.00;;;;;24.28;62.36;100355.34;110297;1258;19923;-37
2023/08/27 08:34:16;;;;;;;;;35.50;30.00;;;;;24.39;62.39;100357.44;110254;1250;20043;-37
2023/08/27 08:36:43;;;;;;;;;28.00;26.00;;;;;24.33;62.37;100351.55;110249;1263;19512;-37
2023/08/27 08:39:11;;;;;;;;;32.33;26.00;;;;;24.40;62.29;100343.79;110237;1250;20017;-37
2023/08/27 08:41:38;;;;;;;;;;;;;;;24.47;62.17;100344.59;110236;1263;18596;-37
2023/08/27 08:44:05;;;;;;;;;33.00;28.00;;;;;24.37;62.30;100345.38;110198;1263;17456;-37
2023/08/27 08:46:34;;;;;;;;;27.00;24.00;;;;;24.42;62.13;100345.01;110207;1263;19166;-37
2023/08/27 08:49:02;;;;;;;;;35.00;31.50;;;;;24.54;62.08;100347.27;110186;1263;18602;-38
2023/08/27 08:51:29;;;;;;;;;33.50;30.50;;;;;24.63;62.19;100348.23;110194;1263;19474;-38
2023/08/27 08:53:57;;;;;;;;;33.67;30.67;;;;;24.62;62.08;100357.32;110187;1250;22000;-38
2023/08/27 08:56:24;;;;;;;;;59.67;49.00;;;;;24.72;61.63;100363.01;110185;1263;18605;-37
2023/08/27 08:58:51;;;;;;;;;43.67;37.67;;;;;24.74;61.84;100359.03;110203;1250;19537;-38
2023/08/27 09:01:19;;;;;;;;;38.00;31.00;;;;;24.72;61.83;100353.54;110300;1257;20112;-38
2023/08/27 09:03:46;;;;;;;;;34.00;31.00;;;;;24.69;61.41;100360.61;110308;1249;18818;-38
2023/08/27 09:06:13;;;;;;;;;38.00;34.00;;;;;24.64;61.17;100358.80;110205;1249;21884;-38
2023/08/27 09:08:41;;;;;;;;;35.00;31.00;;;;;24.64;60.28;100351.84;110252;1263;19922;-37
2023/08/27 09:11:08;;;;;;;;;50.50;43.00;;;;;24.65;60.52;100344.59;110294;1256;18582;-37
2023/08/27 09:13:35;;;;;;;;;33.00;32.00;;;;;24.82;60.32;100336.33;110203;1250;22024;-37
2023/08/27 09:16:03;;;;;;;;;37.50;32.00;;;;;24.91;60.21;100332.35;110201;1250;19966;-38
2023/08/27 09:18:30;;;;;;;;;28.33;27.00;;;;;24.96;59.79;100336.41;110298;1263;19275;-36
2023/08/27 09:20:58;;;;;;;;;29.67;28.00;;;;;24.91;60.27;100340.70;110266;1247;19473;-36
2023/08/27 09:23:25;;;;;;;;;33.50;27.00;;;;;24.88;60.12;100340.31;110255;1250;21849;-36
2023/08/27 09:25:52;;;;;;;;;31.00;29.00;;;;;24.88;59.90;100348.27;110267;1250;20081;-37
2023/08/27 09:28:20;;;;;;;;;32.67;29.33;;;;;24.84;60.19;100357.98;110213;1264;18709;-36
2023/08/27 09:30:47;;;;;;;;;33.00;28.50;;;;;24.82;60.61;100360.50;110286;1264;18552;-37
2023/08/27 09:33:14;;;;;;;;;31.00;29.00;;;;;24.82;60.09;100361.59;110209;1264;18786;-36
2023/08/27 09:35:41;;;;;;;;;29.00;28.00;;;;;24.84;59.89;100353.65;110156;1249;19598;-35
2023/08/27 09:38:09;;;;;;;;;34.00;27.00;;;;;24.81;60.16;100345.50;110251;1250;21987;-36
2023/08/27 09:40:36;;;;;;;;;32.67;30.00;;;;;24.81;61.06;100348.67;110282;1264;18592;-36
2023/08/27 09:43:04;;;;;;;;;29.00;27.50;;;;;24.81;61.14;100335.41;110262;1249;19580;-37
2023/08/27 09:45:32;;;;;;;;;31.00;28.50;;;;;24.86;60.78;100327.63;110192;1247;21267;-36
2023/08/27 09:47:59;;;;;;;;;34.00;30.00;;;;;24.84;59.84;100332.13;110234;1248;19990;-35
2023/08/27 09:50:26;;;;;;;;;33.00;29.00;;;;;24.77;59.90;100329.86;110216;1257;19379;-36
2023/08/27 09:52:54;;;;;;;;;32.50;29.50;;;;;24.74;60.25;100331.31;110257;1250;19992;-36
2023/08/27 09:55:21;;;;;;;;;29.50;27.50;;;;;24.81;59.91;100332.67;110232;1258;20811;-36
2023/08/27 09:57:48;;;;;;;;;30.00;29.00;;;;;24.82;59.77;100338.97;110204;1247;21925;-40
2023/08/27 10:00:16;;;;;;;;;32.50;27.50;;;;;24.85;60.05;100346.45;110230;1264;19797;-36
2023/08/27 10:02:43;;;;;;;;;32.00;30.00;;;;;24.89;60.00;100353.45;110161;1264;20003;-36
2023/08/27 10:05:11;;;;;;;;;33.00;30.00;;;;;24.93;59.68;100358.02;110215;1250;19598;-37
2023/08/27 10:07:38;;;;;;;;;33.00;29.00;;;;;24.78;59.66;100356.14;110210;1250;20163;-37
2023/08/27 10:10:06;;;;;;;;;31.50;30.00;;;;;24.78;59.64;100355.66;110278;1263;18606;-36
2023/08/27 10:12:33;;;;;;;;;33.00;27.00;;;;;24.80;59.69;100354.02;110221;1264;18094;-36
2023/08/27 10:15:01;;;;;;;;;34.00;31.00;;;;;24.88;59.42;100343.54;110172;1250;19978;-36
2023/08/27 10:17:28;;;;;;;;;28.00;25.50;;;;;24.87;59.07;100328.21;110170;1264;21912;-36
2023/08/27 10:19:56;;;;;;;;;29.50;29.00;;;;;24.87;58.80;100323.52;110236;1264;18136;-37
2023/08/27 10:22:23;;;;;;;;;33.00;31.00;;;;;24.85;58.78;100322.56;110287;1250;20006;-36
2023/08/27 10:24:50;;;;;;;;;28.00;24.00;;;;;24.90;58.84;100323.40;110212;1249;22124;-37
2023/08/27 10:27:18;;;;;;;;;30.00;25.00;;;;;24.94;58.74;100328.52;110213;1264;18380;-38
2023/08/27 10:29:45;;;;;;;;;29.50;25.50;;;;;24.96;58.91;100328.15;110191;1250;19928;-37
2023/08/27 10:32:13;;;;;;;;;36.33;30.00;;;;;25.02;58.76;100323.71;110221;1264;19076;-35
2023/08/27 10:34:40;;;;;;;;;32.67;29.67;;;;;25.03;58.77;100323.17;110285;1264;19458;-36
2023/08/27 10:37:07;;;;;;;;;31.50;30.00;;;;;25.05;58.49;100324.23;110240;1248;19921;-36
2023/08/27 10:39:35;;;;;;;;;27.50;24.00;;;;;24.89;58.16;100321.83;110211;1250;21911;-36
2023/08/27 10:42:02;;;;;;;;;27.67;25.00;;;;;24.83;58.66;100318.77;110207;1250;19693;-38
2023/08/27 10:44:30;;;;;;;;;34.00;32.00;;;;;24.88;58.77;100320.69;110217;1250;20011;-38
2023/08/27 10:46:57;;;;;;;;;33.00;28.00;;;;;24.83;59.16;100318.01;110223;1263;20281;-38
2023/08/27 10:49:24;;;;;;;;;26.00;24.50;;;;;24.88;59.15;100313.08;110188;1263;19497;-38
2023/08/27 10:51:52;;;;;;;;;28.00;27.50;;;;;24.92;58.91;100308.98;110209;1263;19915;-38
2023/08/27 10:54:19;;;;;;;;;29.00;26.00;;;;;24.89;58.78;100299.52;110226;1257;20076;-37
2023/08/27 10:56:50;;;;;;;;;28.00;27.00;;;;;24.92;58.45;100291.58;110231;1263;18100;-37
2023/08/27 10:59:17;;;;;;;;;29.00;25.00;;;;;24.96;58.19;100292.04;110211;1250;20008;-38
2023/08/27 11:01:45;;;;;;;;;28.00;25.00;;;;;24.96;58.06;100291.88;110199;1263;18732;-37